Time;durP1;ratioP1;P1;durP2;ratioP2;P2;SDS_P1;SDS_P2;PMS_P1;PMS_P2;Temp;Humidity;BMP_temperature;BMP_pressure;BME280_temperature;BME280_humidity;BME280_pressure;Samples;Min_cycle;Max_cycle;Signal;HPM_P1;HPM_P2
2022/10/19 00:02:04;;;;;;;12.03;2.50;;;;;;;;;;5034178;28;20800;-62
2022/10/19 00:04:31;;;;;;;7.13;2.50;;;;;;;;;;5034348;28;20437;-63
2022/10/19 00:06:58;;;;;;;6.40;2.37;;;;;;;;;;5034403;28;20441;-63
2022/10/19 00:09:28;;;;;;;7.77;2.30;;;;;;;;;;5034205;28;20468;-64
2022/10/19 00:11:55;;;;;;;7.27;2.60;;;;;;;;;;5034612;28;20449;-64
2022/10/19 00:14:23;;;;;;;6.03;2.20;;;;;;;;;;5036855;28;20440;-63
2022/10/19 00:16:52;;;;;;;5.87;2.83;;;;;;;;;;5039780;28;20448;-63
2022/10/19 00:19:20;;;;;;;9.43;2.33;;;;;;;;;;5038517;28;20475;-63
2022/10/19 00:21:47;;;;;;;8.83;2.50;;;;;;;;;;5037513;28;20437;-63
2022/10/19 00:24:14;;;;;;;4.83;2.20;;;;;;;;;;5035156;28;20471;-63
2022/10/19 00:26:43;;;;;;;9.47;3.50;;;;;;;;;;5036222;28;20800;-64
2022/10/19 00:29:11;;;;;;;6.40;2.60;;;;;;;;;;5037082;28;20441;-63
2022/10/19 00:31:38;;;;;;;3.70;2.00;;;;;;;;;;5037482;28;20452;-63
2022/10/19 00:34:05;;;;;;;8.00;3.27;;;;;;;;;;5037987;28;20449;-62
2022/10/19 00:36:34;;;;;;;8.13;3.00;;;;;;;;;;5040033;28;20503;-61
2022/10/19 00:39:02;;;;;;;5.33;2.13;;;;;;;;;;5039296;28;20467;-63
2022/10/19 00:41:30;;;;;;;4.97;2.73;;;;;;;;;;5039277;28;20813;-63
2022/10/19 00:44:00;;;;;;;5.30;2.20;;;;;;;;;;5038776;28;20447;-63
2022/10/19 00:46:28;;;;;;;4.63;2.33;;;;;;;;;;5037987;28;20459;-63
2022/10/19 00:48:58;;;;;;;7.93;2.90;;;;;;;;;;5038052;28;20471;-63
2022/10/19 00:51:25;;;;;;;4.50;2.37;;;;;;;;;;5039028;28;20456;-63
2022/10/19 00:53:52;;;;;;;4.43;2.30;;;;;;;;;;5037447;28;20452;-63
2022/10/19 00:56:19;;;;;;;5.43;2.10;;;;;;;;;;5036798;28;20472;-63
2022/10/19 00:58:47;;;;;;;6.63;2.13;;;;;;;;;;5036898;28;20452;-63
2022/10/19 01:01:17;;;;;;;6.50;3.20;;;;;;;;;;5037381;28;20484;-63
2022/10/19 01:03:44;;;;;;;5.10;1.97;;;;;;;;;;5037205;28;20445;-63
2022/10/19 01:06:12;;;;;;;6.93;3.40;;;;;;;;;;5036978;28;20956;-62
2022/10/19 01:08:39;;;;;;;5.30;2.53;;;;;;;;;;5037220;28;20532;-62
2022/10/19 01:11:14;;;;;;;5.77;2.53;;;;;;;;;;5036648;28;20468;-62
2022/10/19 01:13:45;;;;;;;5.13;2.27;;;;;;;;;;5036734;28;20795;-63
2022/10/19 01:16:15;;;;;;;4.57;2.20;;;;;;;;;;5037070;28;20472;-63
2022/10/19 01:18:48;;;;;;;5.43;2.50;;;;;;;;;;5036525;28;20800;-63
2022/10/19 01:21:21;;;;;;;4.40;2.80;;;11.20;99.90;;;;;;5036409;28;20492;-63
2022/10/19 01:24:31;;;;;;;6.40;2.37;;;10.50;99.90;;;;;;5036467;28;20429;-63
2022/10/19 01:27:37;;;;;;;7.63;2.00;;;10.40;99.90;;;;;;5036625;28;20480;-63
2022/10/19 01:30:12;;;;;;;7.83;2.27;;;10.40;99.90;;;;;;5036249;28;20474;-63
2022/10/19 01:32:58;;;;;;;6.03;2.30;;;10.40;99.90;;;;;;5036346;28;20438;-63
2022/10/19 01:35:32;;;;;;;3.33;2.10;;;10.30;99.90;;;;;;5035611;28;20473;-63
2022/10/19 01:38:10;;;;;;;6.13;2.60;;;10.20;99.90;;;;;;5035038;28;20558;-64
2022/10/19 01:40:44;;;;;;;5.10;1.90;;;10.20;99.90;;;;;;5035787;28;20469;-64
2022/10/19 01:43:20;;;;;;;2.53;1.85;;;10.10;99.90;;;;;;5035635;28;20182;-63
2022/10/19 01:45:52;;;;;;;9.45;2.40;;;10.00;99.90;;;;;;5035899;28;20201;-64
2022/10/19 01:48:22;;;;;;;5.00;2.13;;;10.00;99.90;;;;;;5036296;28;20191;-63
2022/10/19 01:50:55;;;;;;;6.03;2.17;;;10.00;99.90;;;;;;5035551;28;20477;-64
2022/10/19 01:53:24;;;;;;;7.63;2.50;;;9.90;99.90;;;;;;5035464;28;20190;-63
2022/10/19 01:55:52;;;;;;;7.88;2.85;;;9.90;99.90;;;;;;5035635;28;20222;-63
2022/10/19 01:58:24;;;;;;;5.70;2.75;;;9.90;99.90;;;;;;5035808;28;20554;-63
2022/10/19 02:00:55;;;;;;;5.75;2.38;;;9.90;99.90;;;;;;5035488;28;20333;-63
2022/10/19 02:03:24;;;;;;;9.35;2.75;;;10.00;99.90;;;;;;5035465;28;20196;-63
2022/10/19 02:05:52;;;;;;;6.23;2.53;;;10.10;99.90;;;;;;5035213;28;20643;-63
2022/10/19 02:08:24;;;;;;;4.10;2.17;;;10.20;99.90;;;;;;5035098;28;20445;-63
2022/10/19 02:10:51;;;;;;;5.95;2.45;;;10.20;99.90;;;;;;5035177;28;20468;-63
2022/10/19 02:13:20;;;;;;;7.00;2.53;;;10.30;99.90;;;;;;5035036;28;20214;-63
2022/10/19 02:15:54;;;;;;;5.10;2.50;;;10.40;99.90;;;;;;5035233;28;20489;-63
2022/10/19 02:18:26;;;;;;;7.27;2.40;;;10.50;99.90;;;;;;5036061;28;20452;-63
2022/10/19 02:20:53;;;;;;;5.17;2.60;;;10.50;99.90;;;;;;5035163;28;20469;-63
2022/10/19 02:23:23;;;;;;;8.37;2.60;;;10.50;99.90;;;;;;5035480;28;20471;-64
2022/10/19 02:25:50;;;;;;;5.47;2.20;;;10.60;99.90;;;;;;5035231;28;20429;-63
2022/10/19 02:28:17;;;;;;;5.50;2.30;;;10.60;99.90;;;;;;5035061;28;20449;-63
2022/10/19 02:30:44;;;;;;;6.60;2.63;;;10.70;99.90;;;;;;5035003;28;20471;-63
2022/10/19 02:33:12;;;;;;;6.00;2.40;;;10.70;99.90;;;;;;5034833;28;20441;-63
2022/10/19 02:35:40;;;;;;;7.77;2.80;;;10.80;99.90;;;;;;5035038;28;20472;-63
2022/10/19 02:38:09;;;;;;;5.53;2.20;;;10.80;99.90;;;;;;5035397;28;20452;-63
2022/10/19 02:40:40;;;;;;;4.60;2.80;;;10.90;99.90;;;;;;5034872;28;20461;-63
2022/10/19 02:43:11;;;;;;;6.83;2.87;;;10.90;99.90;;;;;;5035017;28;20429;-63
2022/10/19 02:45:43;;;;;;;3.87;2.70;;;10.90;99.90;;;;;;5035512;28;20429;-63
2022/10/19 02:48:17;;;;;;;6.83;2.73;;;11.00;99.90;;;;;;5034819;28;20430;-64
2022/10/19 02:50:44;;;;;;;4.30;2.60;;;10.90;99.90;;;;;;5033860;28;20473;-64
2022/10/19 02:53:11;;;;;;;6.77;2.77;;;10.90;99.90;;;;;;5034768;28;20441;-63
2022/10/19 02:55:38;;;;;;;4.53;2.50;;;11.00;99.90;;;;;;5034294;28;20476;-63
2022/10/19 02:58:04;;;;;;;10.13;2.90;;;11.00;99.90;;;;;;5034232;28;20449;-63
2022/10/19 03:00:31;;;;;;;5.60;2.73;;;11.00;99.90;;;;;;5034383;28;20476;-63
2022/10/19 03:02:58;;;;;;;7.53;2.80;;;11.00;99.90;;;;;;5034372;28;20456;-63
2022/10/19 03:05:26;;;;;;;4.37;3.20;;;11.00;99.90;;;;;;5034176;28;20464;-63
2022/10/19 03:07:53;;;;;;;10.43;3.17;;;11.00;99.90;;;;;;5034221;28;20449;-63
2022/10/19 03:10:19;;;;;;;7.50;3.10;;;11.00;99.90;;;;;;5033775;28;20810;-63
2022/10/19 03:12:46;;;;;;;6.07;3.30;;;11.00;99.90;;;;;;5034152;28;20449;-63
2022/10/19 03:15:15;;;;;;;6.53;3.33;;;11.00;99.90;;;;;;5034014;28;20475;-63
2022/10/19 03:17:42;;;;;;;6.43;3.93;;;11.00;99.90;;;;;;5034142;28;20536;-63
2022/10/19 03:20:10;;;;;;;4.00;3.00;;;11.00;99.90;;;;;;5033935;28;20465;-63
2022/10/19 03:22:38;;;;;;;12.63;3.80;;;11.00;99.90;;;;;;5034025;28;20499;-63
2022/10/19 03:25:05;;;;;;;7.03;3.87;;;11.00;99.90;;;;;;5033840;28;20507;-63
2022/10/19 03:27:32;;;;;;;8.27;3.25;;;11.00;99.90;;;;;;5033870;28;20441;-63
2022/10/19 03:29:59;;;;;;;11.77;3.77;;;11.00;99.90;;;;;;5034452;28;20538;-63
2022/10/19 03:32:25;;;;;;;8.67;3.90;;;11.00;99.90;;;;;;5033477;28;20445;-63
2022/10/19 03:34:52;;;;;;;6.50;4.03;;;11.00;99.90;;;;;;5033684;28;20507;-63
2022/10/19 03:37:19;;;;;;;6.60;3.50;;;11.00;99.90;;;;;;5033133;28;20837;-62
2022/10/19 03:39:47;;;;;;;4.83;3.73;;;11.00;99.90;;;;;;5033238;28;20472;-63
2022/10/19 03:42:14;;;;;;;5.50;3.40;;;11.00;99.90;;;;;;5033356;28;20456;-63
2022/10/19 03:44:40;;;;;;;11.03;3.97;;;11.00;99.90;;;;;;5033552;28;20452;-63
2022/10/19 03:47:07;;;;;;;4.87;3.57;;;11.00;99.90;;;;;;5033483;28;20440;-63
2022/10/19 03:49:34;;;;;;;6.23;3.57;;;11.00;99.90;;;;;;5032871;28;21007;-62
2022/10/19 03:52:00;;;;;;;4.50;3.97;;;11.00;99.90;;;;;;5033322;28;20455;-64
2022/10/19 03:54:27;;;;;;;11.87;6.40;;;11.00;99.90;;;;;;5033144;28;20448;-63
2022/10/19 03:56:55;;;;;;;7.50;4.90;;;11.00;99.90;;;;;;5032909;28;20476;-63
2022/10/19 03:59:23;;;;;;;9.13;5.63;;;11.00;99.90;;;;;;5033192;28;20976;-63
2022/10/19 04:01:49;;;;;;;10.60;6.60;;;11.00;99.90;;;;;;5032833;28;20457;-63
2022/10/19 04:04:19;;;;;;;11.30;7.57;;;11.00;99.90;;;;;;5035368;28;20449;-63
2022/10/19 04:06:47;;;;;;;8.63;6.40;;;11.10;99.90;;;;;;5033968;28;20979;-64
2022/10/19 04:10:23;;;;;;;10.00;6.63;;;11.00;99.90;;;;;;5156914;27;20538;-63
2022/10/19 04:12:50;;;;;;;8.23;5.97;;;11.00;99.90;;;;;;5131839;28;20437;-61
2022/10/19 04:15:17;;;;;;;5.67;5.03;;;11.10;99.90;;;;;;5131364;28;20451;-64
2022/10/19 04:17:44;;;;;;;13.10;6.40;;;11.10;99.90;;;;;;5132193;28;20443;-63
2022/10/19 04:20:11;;;;;;;16.80;5.67;;;11.10;99.90;;;;;;5131914;27;20463;-63
2022/10/19 04:22:38;;;;;;;5.97;4.80;;;11.10;99.90;;;;;;5111510;28;20441;-64
2022/10/19 04:25:06;;;;;;;8.53;4.80;;;11.10;99.90;;;;;;5110669;28;20941;-63
2022/10/19 04:27:34;;;;;;;5.30;4.80;;;11.10;99.90;;;;;;5130862;28;20433;-64
2022/10/19 04:30:01;;;;;;;7.57;4.33;;;11.10;99.90;;;;;;5131719;28;20507;-63
2022/10/19 04:32:27;;;;;;;6.00;3.40;;;11.10;99.90;;;;;;5131245;28;20970;-63
2022/10/19 04:34:54;;;;;;;6.70;3.20;;;11.10;99.90;;;;;;5131152;28;20440;-63
2022/10/19 04:37:21;;;;;;;9.03;4.33;;;11.10;99.90;;;;;;5131025;28;20445;-63
2022/10/19 04:39:47;;;;;;;6.63;4.40;;;11.10;99.90;;;;;;5130856;27;20991;-63
2022/10/19 04:42:14;;;;;;;6.23;3.73;;;11.20;99.90;;;;;;5131086;28;20452;-64
2022/10/19 04:44:42;;;;;;;3.80;3.10;;;11.10;99.90;;;;;;5130839;28;20440;-62
2022/10/19 04:47:09;;;;;;;4.90;3.60;;;11.10;99.90;;;;;;5130795;28;20448;-62
2022/10/19 04:49:36;;;;;;;9.90;3.57;;;11.20;99.90;;;;;;5130929;27;20481;-64
2022/10/19 04:52:03;;;;;;;6.97;3.60;;;11.20;99.90;;;;;;5131105;28;20440;-64
2022/10/19 04:54:29;;;;;;;7.53;3.87;;;11.20;99.90;;;;;;5130678;28;20445;-62
2022/10/19 04:56:56;;;;;;;7.30;4.83;;;11.20;99.90;;;;;;5130920;28;20441;-62
2022/10/19 04:59:23;;;;;;;10.10;4.00;;;11.20;99.90;;;;;;5131838;27;20487;-63
2022/10/19 05:01:51;;;;;;;9.37;3.90;;;11.20;99.90;;;;;;5131833;28;20970;-63
2022/10/19 05:04:18;;;;;;;5.30;3.63;;;11.20;99.90;;;;;;5131730;28;20455;-63
2022/10/19 05:06:44;;;;;;;6.17;3.70;;;11.20;99.90;;;;;;5133309;28;20956;-63
2022/10/19 05:09:11;;;;;;;5.67;4.10;;;11.20;99.90;;;;;;5131516;27;20472;-63
2022/10/19 05:11:38;;;;;;;7.00;3.13;;;11.20;99.90;;;;;;5132061;28;20445;-63
2022/10/19 05:14:05;;;;;;;5.80;4.07;;;11.20;99.90;;;;;;5132350;28;20441;-64
2022/10/19 05:16:31;;;;;;;11.03;4.50;;;11.20;99.90;;;;;;5130571;28;20444;-63
2022/10/19 05:19:00;;;;;;;4.07;2.80;;;11.30;99.90;;;;;;5144664;28;20786;-64
2022/10/19 05:21:28;;;;;;;6.50;3.70;;;11.30;99.90;;;;;;5128085;28;20509;-62
2022/10/19 05:23:56;;;;;;;6.47;3.93;;;11.30;99.90;;;;;;5119151;28;20518;-63
2022/10/19 05:26:24;;;;;;;7.27;2.87;;;11.30;99.90;;;;;;5116445;28;20464;-62
2022/10/19 05:28:55;;;;;;;5.07;3.17;;;11.30;99.90;;;;;;5117638;27;20473;-63
2022/10/19 05:31:23;;;;;;;6.53;3.03;;;11.30;99.90;;;;;;5125558;27;20483;-63
2022/10/19 05:33:51;;;;;;;4.57;3.27;;;11.30;99.90;;;;;;5117521;27;20496;-62
2022/10/19 05:36:21;;;;;;;7.07;2.70;;;11.30;99.90;;;;;;5112432;28;20449;-63
2022/10/19 05:38:51;;;;;;;6.30;3.33;;;11.30;99.90;;;;;;5116975;28;20433;-63
2022/10/19 05:41:19;;;;;;;6.00;2.90;;;11.30;99.90;;;;;;5117235;28;20469;-63
2022/10/19 05:43:46;;;;;;;3.47;2.30;;;11.40;99.90;;;;;;5116798;28;20445;-63
2022/10/19 05:46:16;;;;;;;4.27;2.60;;;11.40;99.90;;;;;;5116143;28;20957;-63
2022/10/19 05:48:43;;;;;;;11.13;3.50;;;11.40;99.90;;;;;;5116198;28;20495;-63
2022/10/19 05:51:11;;;;;;;10.43;2.60;;;11.40;99.90;;;;;;5115846;28;20492;-63
2022/10/19 05:53:40;;;;;;;5.80;3.60;;;11.40;99.90;;;;;;5116077;28;20460;-63
2022/10/19 05:56:09;;;;;;;8.53;3.37;;;11.40;99.90;;;;;;5116323;28;20440;-62
2022/10/19 05:58:36;;;;;;;4.90;2.70;;;11.40;99.90;;;;;;5116735;28;20445;-62
2022/10/19 06:01:03;;;;;;;4.00;2.10;;;11.50;99.90;;;;;;5116152;28;20461;-62
2022/10/19 06:03:30;;;;;;;5.50;2.40;;;11.50;99.90;;;;;;5115908;28;20448;-63
2022/10/19 06:05:58;;;;;;;6.23;2.03;;;11.50;99.90;;;;;;5116203;28;20445;-62
2022/10/19 06:08:25;;;;;;;5.83;1.80;;;11.50;99.90;;;;;;5115644;28;20972;-62
2022/10/19 06:10:53;;;;;;;5.80;2.10;;;11.50;99.90;;;;;;5115726;28;20848;-62
2022/10/19 06:13:20;;;;;;;9.83;2.57;;;11.50;99.90;;;;;;5115683;28;20437;-62
2022/10/19 06:15:51;;;;;;;7.87;2.20;;;11.50;99.90;;;;;;5115400;28;20941;-62
2022/10/19 06:18:17;;;;;;;6.83;1.77;;;11.50;99.90;;;;;;5115361;28;20433;-63
2022/10/19 06:20:44;;;;;;;6.50;2.67;;;11.50;99.90;;;;;;5113421;28;20475;-62
2022/10/19 06:23:11;;;;;;;5.10;1.90;;;11.50;99.90;;;;;;5115146;28;20528;-63
2022/10/19 06:25:38;;;;;;;6.07;2.40;;;11.50;99.90;;;;;;5115151;28;20445;-64
2022/10/19 06:28:06;;;;;;;6.10;2.30;;;11.50;99.90;;;;;;5117114;27;20438;-63
2022/10/19 06:30:32;;;;;;;4.43;1.90;;;11.50;99.90;;;;;;5116885;28;20496;-62
2022/10/19 06:33:00;;;;;;;5.03;2.40;;;11.50;99.90;;;;;;5115483;28;20445;-62
2022/10/19 06:35:26;;;;;;;7.07;2.10;;;11.50;99.90;;;;;;5115447;28;20460;-63
2022/10/19 06:37:56;;;;;;;5.17;2.00;;;11.60;99.90;;;;;;5117439;28;20811;-62
2022/10/19 06:40:23;;;;;;;8.10;2.07;;;11.60;99.90;;;;;;5117272;28;20458;-64
2022/10/19 06:42:50;;;;;;;8.03;1.90;;;11.60;99.90;;;;;;5116273;28;20508;-63
2022/10/19 06:45:18;;;;;;;10.30;2.10;;;11.70;99.90;;;;;;5116189;28;20534;-63
2022/10/19 06:47:45;;;;;;;6.47;1.90;;;11.70;99.90;;;;;;5116538;28;20438;-63
2022/10/19 06:50:12;;;;;;;3.70;1.70;;;11.70;99.90;;;;;;5137648;22;20483;-61
2022/10/19 06:52:39;;;;;;;3.80;1.87;;;11.70;99.90;;;;;;5070624;28;20440;-62
2022/10/19 06:55:07;;;;;;;5.73;1.70;;;11.70;99.90;;;;;;5075317;28;20447;-64
2022/10/19 06:57:34;;;;;;;5.93;2.07;;;11.80;99.90;;;;;;5075470;28;20517;-62
2022/10/19 07:00:01;;;;;;;7.10;1.97;;;11.80;99.90;;;;;;5076032;28;20796;-63
2022/10/19 07:02:29;;;;;;;6.53;1.70;;;11.80;99.90;;;;;;5075741;28;20435;-63
2022/10/19 07:04:56;;;;;;;8.73;1.70;;;11.90;99.90;;;;;;5073450;28;20450;-63
2022/10/19 07:07:23;;;;;;;7.43;2.00;;;11.90;99.90;;;;;;5074944;28;20461;-62
2022/10/19 07:09:50;;;;;;;6.97;2.20;;;12.00;99.90;;;;;;5067481;28;20507;-63
2022/10/19 07:12:17;;;;;;;5.90;1.90;;;12.00;99.90;;;;;;5076787;28;20447;-62
2022/10/19 07:14:43;;;;;;;5.80;1.90;;;12.10;99.90;;;;;;5078025;28;20554;-61
2022/10/19 07:17:11;;;;;;;6.57;1.93;;;12.10;99.90;;;;;;5079055;28;20522;-60
2022/10/19 07:19:39;;;;;;;8.80;2.20;;;12.10;99.90;;;;;;5074148;28;20531;-62
2022/10/19 07:22:06;;;;;;;7.77;2.53;;;12.10;99.90;;;;;;5076840;28;20467;-62
2022/10/19 07:24:33;;;;;;;6.63;2.00;;;12.10;99.90;;;;;;5075946;28;20530;-61
2022/10/19 07:27:00;;;;;;;9.20;1.80;;;12.20;99.90;;;;;;5076156;28;20538;-62
2022/10/19 07:29:27;;;;;;;9.93;2.00;;;12.20;99.90;;;;;;5075922;28;20544;-61
2022/10/19 07:31:54;;;;;;;7.30;2.00;;;12.30;99.90;;;;;;5075253;28;20495;-62
2022/10/19 07:34:21;;;;;;;4.30;1.93;;;12.40;99.90;;;;;;5074924;28;20435;-62
2022/10/19 07:36:50;;;;;;;11.77;2.00;;;12.40;99.90;;;;;;5075486;28;20526;-61
2022/10/19 07:39:17;;;;;;;3.27;2.00;;;12.30;99.90;;;;;;5075916;28;20454;-61
2022/10/19 07:41:45;;;;;;;7.00;2.10;;;12.30;99.90;;;;;;5075240;28;20467;-61
2022/10/19 07:44:12;;;;;;;6.77;1.57;;;12.30;99.90;;;;;;5074684;28;20518;-62
2022/10/19 07:46:39;;;;;;;5.07;2.27;;;12.40;99.90;;;;;;5074973;28;20453;-62
2022/10/19 07:49:08;;;;;;;5.17;2.10;;;12.40;99.90;;;;;;5074809;28;20489;-62
2022/10/19 07:51:35;;;;;;;3.10;1.50;;;12.50;99.90;;;;;;5074914;28;20497;-62
2022/10/19 07:54:04;;;;;;;6.33;1.80;;;12.50;99.80;;;;;;5074516;28;20871;-62
2022/10/19 07:56:32;;;;;;;6.83;2.07;;;12.60;98.90;;;;;;5074628;28;20513;-62
2022/10/19 07:59:00;;;;;;;6.47;1.40;;;12.60;98.20;;;;;;5073949;28;20444;-63
2022/10/19 08:01:29;;;;;;;4.80;1.60;;;12.50;97.50;;;;;;5074633;28;21009;-63
2022/10/19 08:03:57;;;;;;;5.03;1.70;;;12.50;97.20;;;;;;5075095;28;20805;-61
2022/10/19 08:06:25;;;;;;;7.97;1.50;;;12.40;97.00;;;;;;5075034;28;20469;-62
2022/10/19 08:08:53;;;;;;;9.00;1.33;;;12.40;96.90;;;;;;5075052;28;20534;-62
2022/10/19 08:11:23;;;;;;;6.50;1.80;;;12.40;96.30;;;;;;5074950;28;20569;-61
2022/10/19 08:13:51;;;;;;;4.60;1.23;;;12.40;95.80;;;;;;5075458;28;20412;-63
2022/10/19 08:16:26;;;;;;;2.37;1.07;;;12.40;95.00;;;;;;5075415;28;20843;-62
2022/10/19 08:18:57;;;;;;;5.43;1.57;;;12.40;94.40;;;;;;5074921;28;20490;-61
2022/10/19 08:21:24;;;;;;;4.07;1.50;;;12.40;94.10;;;;;;5074327;28;21051;-63
2022/10/19 08:23:51;;;;;;;3.63;1.63;;;12.50;93.60;;;;;;5074492;28;20452;-61
2022/10/19 08:26:17;;;;;;;4.50;1.30;;;12.50;93.30;;;;;;5074479;28;20447;-62
2022/10/19 08:28:46;;;;;;;4.20;1.23;;;12.50;92.90;;;;;;5074402;28;20443;-61
2022/10/19 08:31:14;;;;;;;12.70;1.73;;;12.60;92.70;;;;;;5073987;28;20863;-60
2022/10/19 08:33:42;;;;;;;3.27;1.43;;;12.60;92.50;;;;;;5074553;28;20494;-60
2022/10/19 08:36:10;;;;;;;4.20;1.60;;;12.70;92.30;;;;;;5074486;28;20451;-62
2022/10/19 08:38:37;;;;;;;4.00;1.33;;;12.80;91.80;;;;;;5073685;28;20443;-61
2022/10/19 08:41:27;;;;;;;3.83;1.53;;;12.80;91.50;;;;;;5074369;28;20574;-61
2022/10/19 08:44:21;;;;;;;2.77;1.50;;;12.90;91.20;;;;;;5074329;28;20435;-61
2022/10/19 08:46:54;;;;;;;3.93;1.30;;;12.90;90.90;;;;;;5074768;28;20522;-63
2022/10/19 08:49:24;;;;;;;3.43;1.70;;;12.90;90.50;;;;;;5075077;28;20780;-62
2022/10/19 08:51:55;;;;;;;3.50;1.70;;;13.00;90.40;;;;;;5074020;28;20471;-61
2022/10/19 08:54:23;;;;;;;7.33;1.30;;;13.10;90.10;;;;;;5074387;28;20423;-63
2022/10/19 08:57:03;;;;;;;3.00;1.30;;;13.20;89.50;;;;;;5077381;28;20531;-61
2022/10/19 08:59:40;;;;;;;3.27;1.50;;;13.30;88.70;;;;;;5078632;28;20438;-63
2022/10/19 09:02:16;;;;;;;1.30;1.03;;;13.30;87.80;;;;;;5077389;28;20477;-62
2022/10/19 09:04:48;;;;;;;4.90;1.77;;;13.50;86.90;;;;;;5079351;28;20864;-62
2022/10/19 09:07:27;;;;;;;4.00;1.40;;;13.50;86.10;;;;;;5080199;28;20478;-64
2022/10/19 09:09:57;;;;;;;2.83;1.30;;;13.60;85.30;;;;;;5078969;28;20516;-63
2022/10/19 09:12:45;;;;;;;5.33;1.63;;;13.70;84.80;;;;;;5079041;28;20445;-63
2022/10/19 09:15:16;;;;;;;4.63;1.10;;;13.80;84.10;;;;;;5077883;28;20455;-64
2022/10/19 09:17:43;;;;;;;3.27;1.27;;;13.80;83.10;;;;;;5078856;28;20420;-64
2022/10/19 09:20:17;;;;;;;2.30;1.10;;;13.80;82.60;;;;;;5078132;28;20518;-64
2022/10/19 09:22:44;;;;;;;3.10;1.00;;;13.90;82.10;;;;;;5078828;28;20470;-62
2022/10/19 09:25:18;;;;;;;2.03;1.27;;;14.00;81.40;;;;;;5078227;28;20855;-63
2022/10/19 09:27:47;;;;;;;2.70;1.40;;;14.00;80.70;;;;;;5078612;28;20420;-63
2022/10/19 09:30:19;;;;;;;4.00;1.27;;;14.20;80.20;;;;;;5077758;28;20600;-64
2022/10/19 09:32:48;;;;;;;2.50;1.10;;;14.30;79.40;;;;;;5078745;28;20447;-62
2022/10/19 09:35:24;;;;;;;2.33;1.43;;;14.20;78.70;;;;;;5079140;28;21002;-63
2022/10/19 09:37:51;;;;;;;2.20;1.10;;;14.10;78.40;;;;;;5079158;28;20411;-62
2022/10/19 09:40:21;;;;;;;3.90;1.53;;;14.10;78.50;;;;;;5078512;28;20558;-63
2022/10/19 09:42:55;;;;;;;4.90;1.47;;;14.10;78.40;;;;;;5078545;28;20451;-64
2022/10/19 09:45:33;;;;;;;1.67;1.37;;;14.20;78.30;;;;;;5077995;28;20420;-62
2022/10/19 09:48:02;;;;;;;3.67;1.90;;;14.30;77.70;;;;;;5077943;28;20896;-63
2022/10/19 09:50:30;;;;;;;2.90;1.40;;;14.30;77.20;;;;;;5077488;28;20487;-63
2022/10/19 09:52:59;;;;;;;4.77;2.10;;;14.40;76.90;;;;;;5077255;28;21002;-64
2022/10/19 09:55:33;;;;;;;3.67;1.30;;;14.40;76.70;;;;;;5077474;28;20462;-64
2022/10/19 09:58:03;;;;;;;4.43;1.83;;;14.40;76.10;;;;;;5077371;28;20911;-65
2022/10/19 10:00:38;;;;;;;1.87;1.50;;;14.50;75.80;;;;;;5078696;28;20558;-63
2022/10/19 10:03:06;;;;;;;2.97;1.57;;;14.50;75.50;;;;;;5071244;28;20523;-65
2022/10/19 10:05:35;;;;;;;3.63;1.53;;;14.40;75.10;;;;;;5057518;28;20497;-65
2022/10/19 10:08:04;;;;;;;2.37;1.20;;;14.50;75.40;;;;;;5058022;28;20440;-64
2022/10/19 10:10:35;;;;;;;1.73;1.63;;;14.50;75.00;;;;;;5058190;28;20503;-64
2022/10/19 10:13:03;;;;;;;2.80;1.27;;;14.50;74.70;;;;;;5057510;28;20501;-65
2022/10/19 10:15:42;;;;;;;3.10;1.60;;;14.50;74.00;;;;;;5057135;28;20547;-65
2022/10/19 10:18:14;;;;;;;7.13;4.07;;;14.50;73.30;;;;;;5057052;28;20432;-64
2022/10/19 10:20:57;;;;;;;10.80;8.90;;;14.40;73.50;;;;;;5057215;28;20456;-65
2022/10/19 10:23:26;;;;;;;8.13;2.10;;;14.50;73.70;;;;;;5056764;28;20876;-65
2022/10/19 10:25:56;;;;;;;3.53;1.80;;;14.50;72.90;;;;;;5057083;28;20448;-64
2022/10/19 10:28:25;;;;;;;5.97;2.10;;;14.50;72.50;;;;;;5056929;28;20440;-65
2022/10/19 10:30:59;;;;;;;2.60;1.40;;;14.60;72.50;;;;;;5056415;28;20484;-63
2022/10/19 10:33:28;;;;;;;3.53;1.90;;;14.70;72.70;;;;;;5056648;28;20442;-63
2022/10/19 10:36:01;;;;;;;3.47;2.20;;;14.90;71.70;;;;;;5056958;28;20445;-64
2022/10/19 10:38:31;;;;;;;5.30;1.83;;;15.00;71.10;;;;;;5056820;28;20476;-64
2022/10/19 10:41:02;;;;;;;3.20;1.63;;;15.00;70.90;;;;;;5056642;28;20830;-64
2022/10/19 10:43:32;;;;;;;3.40;1.43;;;15.10;70.50;;;;;;5056086;28;20471;-63
2022/10/19 10:46:05;;;;;;;2.43;1.43;;;15.20;70.60;;;;;;5056096;28;20455;-66
2022/10/19 10:48:36;;;;;;;3.33;1.43;;;15.20;70.00;;;;;;5055655;28;20455;-63
2022/10/19 10:51:03;;;;;;;2.40;1.40;;;15.20;69.60;;;;;;5055754;28;20484;-63
2022/10/19 10:53:38;;;;;;;3.60;1.93;;;15.20;69.50;;;;;;5055813;28;20463;-65
2022/10/19 10:56:17;;;;;;;2.13;1.60;;;15.30;69.50;;;;;;5057435;28;20432;-63
2022/10/19 10:58:50;;;;;;;3.93;1.30;;;15.50;69.30;;;;;;5057034;28;20412;-63
2022/10/19 11:01:22;;;;;;;2.83;1.60;;;15.70;68.70;;;;;;5055424;28;20522;-64
2022/10/19 11:03:55;;;;;;;3.73;1.47;;;15.80;68.00;;;;;;5055492;28;20428;-65
2022/10/19 11:06:25;;;;;;;1.93;1.40;;;15.80;67.50;;;;;;5055646;28;20425;-65
2022/10/19 11:08:58;;;;;;;3.23;1.60;;;15.80;67.50;;;;;;5056421;28;20452;-64
2022/10/19 11:11:32;;;;;;;1.80;1.30;;;15.80;67.10;;;;;;5054879;28;20488;-63
2022/10/19 11:14:04;;;;;;;3.63;2.80;;;15.90;66.90;;;;;;5056332;28;20450;-65
2022/10/19 11:16:38;;;;;;;3.00;1.93;;;16.10;66.70;;;;;;5055230;28;20459;-64
2022/10/19 11:19:12;;;;;;;5.13;1.80;;;16.20;65.90;;;;;;5055007;28;20436;-64
2022/10/19 11:21:44;;;;;;;1.90;1.57;;;16.20;65.40;;;;;;5056487;28;20471;-64
2022/10/19 11:24:21;;;;;;;2.30;1.33;;;16.30;65.00;;;;;;5056104;28;20432;-64
2022/10/19 11:27:00;;;;;;;5.60;2.00;;;16.30;64.40;;;;;;5054786;28;20440;-64
2022/10/19 11:29:48;;;;;;;3.57;1.90;;;16.10;64.10;;;;;;5056299;28;20444;-65
2022/10/19 11:32:27;;;;;;;3.10;1.67;;;16.00;64.10;;;;;;5056211;28;20484;-64
2022/10/19 11:35:07;;;;;;;4.00;1.80;;;15.70;63.80;;;;;;5055319;28;20428;-64
2022/10/19 11:37:43;;;;;;;3.10;1.80;;;15.50;63.90;;;;;;5056757;28;20444;-63
2022/10/19 11:40:17;;;;;;;3.50;1.90;;;15.30;64.40;;;;;;5057461;28;20452;-64
2022/10/19 11:42:54;;;;;;;3.03;1.40;;;15.20;64.70;;;;;;5056305;28;20441;-64
2022/10/19 11:45:37;;;;;;;2.40;1.70;;;15.20;64.70;;;;;;5055581;28;20456;-64
2022/10/19 11:48:21;;;;;;;2.30;1.67;;;15.00;64.90;;;;;;5055538;28;20436;-65
2022/10/19 11:50:54;;;;;;;6.97;3.23;;;14.90;65.10;;;;;;5055392;28;20606;-63
2022/10/19 11:53:29;;;;;;;3.20;2.30;;;14.70;65.60;;;;;;5054579;28;20440;-65
2022/10/19 11:56:00;;;;;;;4.53;1.83;;;14.60;65.90;;;;;;5054625;28;20428;-64
2022/10/19 11:58:40;;;;;;;2.80;1.80;;;14.40;66.10;;;;;;5055064;28;20807;-63
2022/10/19 12:01:15;;;;;;;3.03;2.23;;;14.30;66.60;;;;;;5055317;28;20986;-63
2022/10/19 12:04:16;;;;;;;3.10;2.00;;;14.10;67.20;;;;;;5055035;28;20518;-63
2022/10/19 12:06:50;;;;;;;5.50;2.33;;;14.10;67.60;;;;;;5054811;28;20806;-64
2022/10/19 12:09:27;;;;;;;4.13;2.13;;;14.10;67.60;;;;;;5055066;28;20515;-63
2022/10/19 12:12:11;;;;;;;2.40;2.00;;;14.10;67.80;;;;;;5054512;28;20487;-64
2022/10/19 12:14:41;;;;;;;3.53;2.50;;;14.20;67.80;;;;;;5055584;28;20429;-64
2022/10/19 12:17:14;;;;;;;2.53;1.87;;;14.40;67.90;;;;;;5054158;28;20804;-64
2022/10/19 12:19:48;;;;;;;2.77;2.30;;;14.50;67.60;;;;;;5054594;28;20444;-64
2022/10/19 12:22:22;;;;;;;3.43;1.77;;;14.70;67.40;;;;;;5054632;28;20451;-63
2022/10/19 12:24:52;;;;;;;4.47;1.80;;;14.80;67.00;;;;;;5055434;28;20459;-64
2022/10/19 12:27:30;;;;;;;5.17;2.03;;;14.90;66.70;;;;;;5054994;28;20451;-63
2022/10/19 12:30:06;;;;;;;3.57;2.23;;;15.00;66.40;;;;;;5054966;28;20436;-64
2022/10/19 12:32:49;;;;;;;2.90;1.97;;;15.10;66.20;;;;;;5059193;28;20558;-63
2022/10/19 12:35:34;;;;;;;4.87;2.10;;;15.10;66.20;;;;;;5058820;28;20953;-65
2022/10/19 12:38:08;;;;;;;2.60;1.60;;;15.20;66.50;;;;;;5059458;28;20460;-64
2022/10/19 12:40:43;;;;;;;3.33;1.47;;;15.30;66.00;;;;;;5059785;28;20556;-63
2022/10/19 12:43:21;;;;;;;4.17;1.83;;;15.40;65.30;;;;;;5060078;28;20448;-65
2022/10/19 12:45:54;;;;;;;2.90;2.10;;;15.50;65.10;;;;;;5059358;28;20927;-67
2022/10/19 12:48:23;;;;;;;4.20;2.50;;;15.70;64.90;;;;;;5058122;28;20438;-63
2022/10/19 12:51:17;;;;;;;3.17;2.27;;;15.70;64.60;;;;;;5057607;28;20483;-64
2022/10/19 12:53:47;;;;;;;3.80;2.00;;;15.70;64.60;;;;;;5054947;28;20456;-64
2022/10/19 12:56:20;;;;;;;4.07;1.60;;;15.70;64.70;;;;;;5057806;28;20512;-64
2022/10/19 12:58:52;;;;;;;3.30;1.90;;;15.70;64.60;;;;;;5059501;28;20459;-65
2022/10/19 13:01:23;;;;;;;2.83;2.17;;;15.70;64.60;;;;;;5058321;28;20513;-65
2022/10/19 13:03:54;;;;;;;6.17;2.30;;;15.70;64.50;;;;;;5057658;28;20538;-65
2022/10/19 13:06:34;;;;;;;4.10;2.37;;;15.70;64.40;;;;;;5057665;28;20983;-64
2022/10/19 13:09:03;;;;;;;4.13;1.90;;;15.70;64.30;;;;;;5057854;28;20484;-65
2022/10/19 13:11:30;;;;;;;5.93;2.17;;;15.70;64.20;;;;;;5056844;28;20510;-64
2022/10/19 13:14:00;;;;;;;2.73;2.10;;;15.70;64.40;;;;;;5057031;28;20447;-64
2022/10/19 13:16:55;;;;;;;2.93;1.93;;;15.70;64.20;;;;;;5056884;28;20435;-65